Time;durP1;ratioP1;P1;durP2;ratioP2;P2;SDS_P1;SDS_P2;PMS_P1;PMS_P2;Temp;Humidity;BMP_temperature;BMP_pressure;BME280_temperature;BME280_humidity;BME280_pressure;Samples;Min_cycle;Max_cycle;Signal;HPM_P1;HPM_P2
2023/01/23 00:05:18;;;;;;;13.35;8.43;;;5.60;84.60;;;;;;10979071;32;20019;-77
2023/01/23 00:11:22;;;;;;;7.05;4.53;;;5.50;84.80;;;;;;10979048;32;20423;-76
2023/01/23 00:17:28;;;;;;;9.98;6.75;;;5.60;85.20;;;;;;10965517;32;20023;-76
2023/01/23 00:23:30;;;;;;;5.18;3.67;;;5.60;84.80;;;;;;10552563;27;12242538;-76
2023/01/23 00:29:33;;;;;;;6.47;4.00;;;5.70;85.10;;;;;;10850638;32;20070;-76
2023/01/23 00:35:35;;;;;;;7.50;5.30;;;5.70;85.20;;;;;;10862365;32;20356;-76
2023/01/23 00:41:45;;;;;;;9.20;5.62;;;5.70;85.10;;;;;;10861838;32;20031;-76
2023/01/23 00:47:47;;;;;;;6.70;4.18;;;5.70;85.00;;;;;;10884099;32;20057;-76
2023/01/23 00:53:49;;;;;;;5.10;3.22;;;5.70;85.00;;;;;;10947850;32;20018;-76
2023/01/23 00:59:51;;;;;;;6.18;3.22;;;5.70;85.20;;;;;;10934126;32;20042;-76
2023/01/23 01:05:54;;;;;;;7.05;3.92;;;5.80;85.30;;;;;;10947166;32;20023;-76
2023/01/23 01:11:56;;;;;;;4.32;2.70;;;5.80;85.20;;;;;;10946026;32;20018;-76
2023/01/23 01:17:58;;;;;;;5.90;3.00;;;5.80;85.40;;;;;;10946905;32;20015;-76
2023/01/23 01:24:01;;;;;;;2.85;2.12;;;5.90;85.40;;;;;;10932522;32;20101;-76
2023/01/23 01:30:03;;;;;;;3.83;2.12;;;5.90;85.50;;;;;;10946433;32;20053;-76
2023/01/23 01:36:17;;;;;;;5.78;2.97;;;6.00;85.50;;;;;;10946414;32;20080;-76
2023/01/23 01:42:21;;;;;;;4.70;2.50;;;6.00;85.50;;;;;;10932641;32;20014;-76
2023/01/23 01:48:29;;;;;;;5.40;3.05;;;6.00;85.50;;;;;;10945776;32;20325;-76
2023/01/23 01:54:41;;;;;;;3.67;2.30;;;6.00;85.50;;;;;;10932155;32;20038;-76
2023/01/23 02:00:43;;;;;;;3.20;1.62;;;6.00;85.50;;;;;;10931079;32;20048;-76
2023/01/23 02:06:45;;;;;;;6.20;2.08;;;6.00;85.50;;;;;;10942294;32;20027;-76
2023/01/23 02:12:51;;;;;;;4.03;2.47;;;6.10;85.50;;;;;;10931673;32;20427;-76
2023/01/23 02:18:58;;;;;;;6.07;2.97;;;6.00;85.30;;;;;;10944753;32;20023;-76
2023/01/23 02:25:15;;;;;;;3.70;2.33;;;5.90;85.10;;;;;;10930961;32;20026;-76
2023/01/23 02:31:19;;;;;;;2.45;1.50;;;5.90;85.20;;;;;;10931091;32;20462;-76
2023/01/23 02:37:26;;;;;;;3.42;2.00;;;5.90;85.20;;;;;;10940478;32;20349;-76
2023/01/23 02:43:34;;;;;;;4.00;1.70;;;5.90;85.20;;;;;;10943856;32;20015;-76
2023/01/23 02:49:54;;;;;;;2.33;1.35;;;5.90;85.20;;;;;;10943673;32;20478;-76
2023/01/23 02:55:59;;;;;;;2.47;1.62;;;5.90;85.10;;;;;;10929638;32;20329;-76
2023/01/23 03:02:02;;;;;;;2.30;1.35;;;5.90;84.90;;;;;;10943250;32;20102;-76
2023/01/23 03:08:05;;;;;;;3.85;2.28;;;5.90;85.10;;;;;;10941059;32;20049;-76
2023/01/23 03:14:10;;;;;;;3.42;2.58;;;6.00;85.40;;;;;;10942826;32;20374;-76
2023/01/23 03:20:12;;;;;;;4.57;2.12;;;6.20;85.40;;;;;;10942641;32;20049;-76
2023/01/23 03:26:16;;;;;;;4.32;2.45;;;6.30;85.40;;;;;;10942366;32;20046;-76
2023/01/23 03:32:20;;;;;;;9.60;6.62;;;6.30;85.40;;;;;;10916047;32;20073;-76
2023/01/23 03:38:22;;;;;;;6.93;3.62;;;6.30;85.50;;;;;;10928742;32;20019;-76
2023/01/23 03:44:25;;;;;;;7.45;4.43;;;6.20;85.60;;;;;;10941899;32;20019;-76
2023/01/23 03:50:27;;;;;;;5.47;2.83;;;6.50;86.10;;;;;;10941859;32;20037;-76
2023/01/23 03:56:29;;;;;;;5.03;3.12;;;6.60;86.10;;;;;;10941667;32;20016;-76
2023/01/23 04:02:32;;;;;;;4.78;2.40;;;6.70;86.10;;;;;;10941630;32;20018;-74
2023/01/23 04:08:35;;;;;;;6.60;4.43;;;6.80;86.10;;;;;;10941446;32;20041;-74
2023/01/23 04:14:39;;;;;;;8.35;4.53;;;6.70;86.00;;;;;;10941436;32;20034;-73
2023/01/23 04:20:41;;;;;;;5.60;3.42;;;6.60;86.30;;;;;;10941225;32;20050;-73
2023/01/23 04:26:44;;;;;;;5.75;3.00;;;6.70;86.70;;;;;;10934332;32;20314;-74
2023/01/23 04:32:46;;;;;;;5.55;3.05;;;6.90;86.90;;;;;;10948486;32;20380;-74
2023/01/23 04:38:49;;;;;;;4.95;2.72;;;6.90;86.30;;;;;;10948327;32;20019;-74
2023/01/23 04:44:52;;;;;;;3.15;1.77;;;7.00;86.80;;;;;;10948055;32;20046;-74
2023/01/23 04:50:55;;;;;;;1.95;1.30;;;7.00;87.00;;;;;;10934149;32;20026;-74
2023/01/23 04:56:57;;;;;;;2.45;1.62;;;7.10;87.20;;;;;;10947182;32;20337;-74
2023/01/23 05:03:01;;;;;;;2.80;1.52;;;7.20;87.60;;;;;;10947571;32;20337;-74
2023/01/23 05:09:04;;;;;;;4.43;1.02;;;7.20;87.20;;;;;;10947225;32;20443;-74
2023/01/23 05:15:08;;;;;;;3.75;1.67;;;7.30;87.20;;;;;;10947024;32;20041;-74
2023/01/23 05:21:11;;;;;;;4.57;2.15;;;7.30;87.60;;;;;;10933012;32;20448;-74
2023/01/23 05:27:17;;;;;;;1.98;1.33;;;7.40;87.80;;;;;;10946555;32;20022;-74
2023/01/23 05:33:21;;;;;;;2.83;1.55;;;7.40;87.60;;;;;;10945477;32;20023;-74
2023/01/23 05:39:24;;;;;;;1.95;1.30;;;7.50;88.10;;;;;;10946301;32;20027;-73
2023/01/23 05:45:26;;;;;;;3.83;1.87;;;7.60;88.10;;;;;;10945981;32;20058;-73
2023/01/23 05:51:31;;;;;;;2.35;1.50;;;7.60;88.00;;;;;;10932391;32;20027;-74
2023/01/23 05:57:34;;;;;;;2.67;1.48;;;7.50;88.00;;;;;;10945599;32;20353;-74
2023/01/23 06:03:45;;;;;;;5.37;1.73;;;7.50;88.40;;;;;;10932242;32;20283;-74
2023/01/23 06:09:50;;;;;;;2.08;1.23;;;7.50;89.00;;;;;;10931903;32;20325;-73
2023/01/23 06:16:03;;;;;;;2.97;1.70;;;7.50;88.80;;;;;;10945037;32;20061;-74
2023/01/23 06:22:05;;;;;;;5.75;2.35;;;7.70;89.20;;;;;;10944574;32;20023;-74
2023/01/23 06:28:39;;;;;;;4.57;1.95;;;7.70;89.00;;;;;;10944515;32;20332;-73
2023/01/23 06:34:55;;;;;;;1.25;1.00;;;7.80;88.90;;;;;;10943805;32;20045;-73
2023/01/23 06:40:58;;;;;;;4.45;1.83;;;7.70;89.30;;;;;;10944032;32;20072;-73
2023/01/23 06:47:00;;;;;;;1.95;1.37;;;7.90;89.40;;;;;;10930022;32;20027;-73
2023/01/23 06:53:17;;;;;;;3.95;2.62;;;8.00;89.30;;;;;;10943601;32;20015;-73
2023/01/23 06:59:19;;;;;;;3.95;2.00;;;8.00;89.20;;;;;;10943079;32;20019;-73
2023/01/23 07:05:21;;;;;;;1.98;1.20;;;7.80;89.00;;;;;;10941945;32;20432;-73
2023/01/23 07:11:24;;;;;;;2.83;1.40;;;7.70;88.50;;;;;;10925976;32;20365;-73
2023/01/23 07:17:26;;;;;;;2.87;1.35;;;7.70;88.80;;;;;;10942431;32;20051;-73
2023/01/23 07:23:28;;;;;;;5.97;1.52;;;7.60;88.70;;;;;;10928542;32;20344;-73
2023/01/23 07:29:30;;;;;;;1.95;1.00;;;7.50;89.20;;;;;;10924312;32;20417;-73
2023/01/23 07:35:32;;;;;;;2.28;1.30;;;7.50;89.30;;;;;;10941111;32;20019;-73
2023/01/23 07:41:34;;;;;;;9.55;3.60;;;7.50;89.40;;;;;;10941944;32;20014;-73
2023/01/23 07:47:40;;;;;;;2.12;1.65;;;7.50;89.40;;;;;;10941920;32;20203;-75
2023/01/23 07:53:42;;;;;;;2.17;1.45;;;7.50;89.10;;;;;;10924251;32;20060;-75
2023/01/23 07:59:44;;;;;;;4.62;1.65;;;7.60;89.60;;;;;;10941105;32;20353;-75
2023/01/23 08:05:49;;;;;;;2.05;1.00;;;7.70;90.00;;;;;;10941612;32;20042;-75
2023/01/23 08:11:51;;;;;;;1.30;1.20;;;7.70;89.10;;;;;;10939463;32;20022;-77
2023/01/23 08:17:53;;;;;;;2.92;1.77;;;7.60;89.50;;;;;;10941208;32;20014;-77
2023/01/23 08:23:55;;;;;;;2.53;1.62;;;7.70;89.30;;;;;;10864296;27;20055;-76
2023/01/23 08:29:57;;;;;;;3.03;1.50;;;7.60;89.30;;;;;;10787191;32;20185;-77
2023/01/23 08:36:00;;;;;;;2.60;1.48;;;7.70;89.70;;;;;;10786852;33;20441;-77
2023/01/23 08:42:02;;;;;;;2.10;1.35;;;7.70;89.80;;;;;;10786632;33;20024;-77
2023/01/23 08:48:05;;;;;;;3.97;1.95;;;7.70;89.40;;;;;;10786415;33;20406;-77
2023/01/23 08:54:15;;;;;;;3.00;1.67;;;7.70;89.60;;;;;;10773257;32;20067;-73
2023/01/23 09:00:18;;;;;;;1.50;1.10;;;7.70;89.70;;;;;;10786157;33;20434;-73
2023/01/23 09:06:21;;;;;;;3.47;1.92;;;7.90;89.90;;;;;;10786039;33;20028;-73
2023/01/23 09:12:41;;;;;;;1.73;0.95;;;8.00;90.00;;;;;;10791376;32;20017;-73
2023/01/23 09:18:43;;;;;;;1.95;1.10;;;7.90;89.60;;;;;;10766967;32;20339;-72
2023/01/23 09:24:45;;;;;;;3.10;1.67;;;7.90;89.30;;;;;;10791784;33;20403;-73
2023/01/23 09:30:47;;;;;;;2.30;1.00;;;7.80;89.60;;;;;;10788906;33;20056;-73
2023/01/23 09:36:49;;;;;;;4.53;1.00;;;7.90;89.50;;;;;;10788355;33;20047;-73
2023/01/23 09:42:54;;;;;;;1.35;0.80;;;7.90;89.40;;;;;;10791669;32;20017;-73
2023/01/23 09:49:27;;;;;;;1.23;0.82;;;7.90;89.70;;;;;;10775975;32;20063;-72
2023/01/23 09:55:47;;;;;;;1.80;1.17;;;8.00;89.90;;;;;;10787514;33;20020;-72
2023/01/23 10:01:50;;;;;;;2.05;1.00;;;8.00;90.20;;;;;;10777868;32;20322;-73
2023/01/23 10:08:10;;;;;;;0.68;0.55;;;8.10;89.80;;;;;;10790564;33;20028;-72
2023/01/23 10:14:19;;;;;;;1.67;0.88;;;8.10;90.10;;;;;;10790731;32;20043;-72
2023/01/23 10:20:32;;;;;;;0.65;0.57;;;8.20;89.90;;;;;;10776750;32;20039;-72
2023/01/23 10:26:44;;;;;;;1.25;1.00;;;8.20;90.10;;;;;;10789803;33;20020;-72
2023/01/23 10:33:00;;;;;;;1.55;0.65;;;8.30;89.50;;;;;;10789648;32;20020;-72
2023/01/23 10:39:04;;;;;;;0.60;0.57;;;8.40;89.20;;;;;;10788570;33;20043;-72
2023/01/23 10:45:16;;;;;;;2.33;0.80;;;8.40;89.40;;;;;;10789665;33;20424;-72
2023/01/23 10:51:37;;;;;;;0.75;0.68;;;8.50;89.50;;;;;;10787009;33;20074;-72
2023/01/23 10:57:47;;;;;;;1.95;1.17;;;8.50;89.80;;;;;;10776358;32;20020;-72
2023/01/23 11:03:49;;;;;;;1.50;0.80;;;8.50;89.80;;;;;;10789041;33;20021;-76
2023/01/23 11:09:57;;;;;;;1.08;0.90;;;8.50;89.70;;;;;;10788854;33;20028;-76
2023/01/23 11:15:59;;;;;;;0.98;0.50;;;8.60;90.40;;;;;;10787476;33;20019;-76
2023/01/23 11:22:04;;;;;;;5.25;1.35;;;8.60;90.40;;;;;;10788529;33;20028;-76
2023/01/23 11:28:26;;;;;;;0.77;0.62;;;8.60;90.00;;;;;;10788467;33;20020;-76
2023/01/23 11:34:39;;;;;;;1.52;0.90;;;8.70;90.20;;;;;;10773792;32;20086;-76
2023/01/23 11:40:41;;;;;;;1.75;0.90;;;8.70;90.30;;;;;;10788222;33;20042;-77
2023/01/23 11:46:56;;;;;;;2.20;1.55;;;8.70;90.60;;;;;;10784555;33;20402;-76
2023/01/23 11:53:19;;;;;;;1.75;1.25;;;8.70;90.80;;;;;;10774697;32;20086;-76
2023/01/23 11:59:37;;;;;;;3.42;1.10;;;8.80;90.40;;;;;;10787316;33;20024;-76
2023/01/23 12:06:11;;;;;;;1.12;0.88;;;8.80;90.50;;;;;;10787434;33;20042;-76
2023/01/23 12:13:01;;;;;;;2.58;1.05;;;8.90;90.60;;;;;;10786958;32;20410;-76
2023/01/23 12:19:16;;;;;;;4.62;1.33;;;9.00;90.30;;;;;;10768239;33;20028;-76
2023/01/23 12:25:29;;;;;;;2.95;1.58;;;9.00;90.10;;;;;;10786057;33;20047;-76
2023/01/23 12:31:41;;;;;;;4.03;1.27;;;9.00;90.20;;;;;;10783995;33;20434;-76
2023/01/23 12:38:14;;;;;;;3.65;1.77;;;9.00;89.80;;;;;;10787008;33;20017;-76
2023/01/23 12:44:30;;;;;;;3.10;1.65;;;9.10;90.10;;;;;;10784858;33;20012;-76
2023/01/23 12:50:45;;;;;;;3.40;2.00;;;9.20;89.90;;;;;;10792990;33;20020;-75
2023/01/23 12:57:04;;;;;;;4.28;1.83;;;9.10;89.20;;;;;;10793945;33;20016;-75
2023/01/23 13:03:26;;;;;;;2.95;1.60;;;9.10;89.10;;;;;;10792588;33;20054;-76
2023/01/23 13:09:47;;;;;;;3.67;1.80;;;9.10;89.30;;;;;;10776471;33;20064;-76
2023/01/23 13:16:26;;;;;;;3.28;1.87;;;9.20;89.40;;;;;;10792367;33;20058;-75
2023/01/23 13:22:37;;;;;;;4.28;2.10;;;9.20;89.70;;;;;;10827476;32;20078;-75
2023/01/23 13:28:41;;;;;;;4.75;2.50;;;9.20;89.50;;;;;;10830847;32;20374;-76
2023/01/23 13:34:44;;;;;;;3.08;1.85;;;9.20;89.80;;;;;;10830651;32;20383;-74
2023/01/23 13:41:13;;;;;;;1.60;1.15;;;9.20;89.40;;;;;;10830252;32;20027;-73
2023/01/23 14:05:11;;;;;;;3.45;1.73;;;9.30;90.10;;;;;;10595240;33;20031;-76
2023/01/23 14:07:43;;;;;;;3.60;1.70;;;9.20;90.00;;;;;;10607739;33;20060;-76
2023/01/23 14:16:08;;;;;;;1.58;1.27;;;9.20;89.80;;;;;;10606458;33;20026;-76
2023/01/23 14:20:17;;;;;;;2.10;0.93;;;9.20;90.40;;;;;;10631830;33;20051;-76
2023/01/23 14:26:46;;;;;;;1.98;1.35;;;9.20;90.10;;;;;;10777440;32;20349;-76
2023/01/23 14:32:49;;;;;;;2.50;1.17;;;9.20;90.00;;;;;;10756432;32;20106;-76
2023/01/23 14:38:51;;;;;;;3.53;1.67;;;9.20;90.10;;;;;;10767883;33;20051;-75
2023/01/23 14:44:56;;;;;;;3.00;2.05;;;9.30;90.10;;;;;;10785795;33;20016;-76
2023/01/23 14:51:19;;;;;;;3.55;1.48;;;9.20;89.70;;;;;;10776194;33;20373;-73
2023/01/23 14:57:23;;;;;;;2.72;1.80;;;9.30;89.90;;;;;;10775770;32;20035;-73
2023/01/23 15:03:55;;;;;;;1.83;1.20;;;9.40;89.50;;;;;;10789046;33;20039;-74
2023/01/23 15:09:57;;;;;;;1.55;1.45;;;9.40;89.30;;;;;;10788864;33;20311;-73
2023/01/23 15:16:24;;;;;;;3.35;1.33;;;9.40;89.50;;;;;;10776143;32;20475;-74
2023/01/23 15:22:29;;;;;;;2.97;1.55;;;9.50;89.80;;;;;;10712456;33;20363;-73
2023/01/23 15:28:48;;;;;;;2.78;1.37;;;9.50;89.60;;;;;;10711421;33;20033;-73
2023/01/23 15:34:56;;;;;;;2.95;1.98;;;9.50;89.90;;;;;;10710843;33;20030;-72
2023/01/23 15:40:58;;;;;;;3.97;1.35;;;9.50;89.70;;;;;;10709261;33;20225;-73
2023/01/23 15:47:02;;;;;;;3.55;1.70;;;9.40;89.60;;;;;;10698214;33;20029;-73
2023/01/23 15:53:13;;;;;;;4.40;1.65;;;9.50;90.10;;;;;;10700605;32;20384;-72
2023/01/23 15:59:17;;;;;;;2.35;1.40;;;9.50;90.50;;;;;;10742120;33;20392;-73
2023/01/23 16:05:29;;;;;;;2.75;1.52;;;9.30;89.60;;;;;;10748926;33;20020;-72
2023/01/23 16:11:34;;;;;;;2.92;1.40;;;9.30;90.20;;;;;;10737879;33;20051;-76
2023/01/23 16:17:36;;;;;;;2.80;1.70;;;9.30;90.00;;;;;;10738905;32;20028;-75
2023/01/23 16:23:38;;;;;;;3.45;1.35;;;9.30;90.30;;;;;;10778453;27;20090;-73
2023/01/23 16:29:42;;;;;;;2.37;1.67;;;9.30;90.00;;;;;;10789710;33;20028;-73
2023/01/23 16:35:45;;;;;;;2.47;1.23;;;9.20;89.60;;;;;;10780108;32;20326;-73
2023/01/23 16:41:49;;;;;;;4.22;2.47;;;9.10;89.50;;;;;;10793290;33;20064;-73
2023/01/23 16:47:51;;;;;;;2.80;1.73;;;9.00;90.10;;;;;;10793234;33;20429;-73
2023/01/23 16:53:56;;;;;;;3.65;2.17;;;9.00;89.40;;;;;;10779459;33;20039;-73
2023/01/23 16:59:59;;;;;;;5.40;3.15;;;9.00;89.90;;;;;;10779443;33;20074;-74
2023/01/23 17:06:01;;;;;;;3.53;1.65;;;9.10;89.20;;;;;;10792358;33;20303;-73
2023/01/23 17:12:03;;;;;;;5.07;1.52;;;9.10;89.00;;;;;;10791864;33;20432;-73
2023/01/23 17:18:05;;;;;;;2.03;1.27;;;9.10;88.90;;;;;;10792309;33;20090;-73
2023/01/23 17:24:15;;;;;;;4.93;2.37;;;9.10;89.40;;;;;;10778342;32;20031;-73
2023/01/23 17:30:23;;;;;;;2.12;1.67;;;9.10;89.20;;;;;;10765847;33;20071;-73
2023/01/23 17:36:25;;;;;;;3.37;1.48;;;9.10;88.80;;;;;;10791961;32;20048;-73
2023/01/23 17:42:28;;;;;;;3.20;2.00;;;9.10;89.50;;;;;;10779453;32;20320;-75
2023/01/23 17:48:35;;;;;;;2.70;1.80;;;9.10;89.10;;;;;;10789317;33;20028;-75
2023/01/23 17:54:37;;;;;;;3.85;1.90;;;9.10;89.20;;;;;;10791237;33;20047;-75
2023/01/23 18:00:49;;;;;;;2.78;1.50;;;9.10;89.40;;;;;;10777972;33;20021;-75
2023/01/23 18:06:51;;;;;;;2.15;1.65;;;9.10;89.20;;;;;;10788576;33;20032;-75
2023/01/23 18:13:31;;;;;;;4.05;1.70;;;9.10;89.20;;;;;;10788296;33;20023;-75
2023/01/23 18:19:34;;;;;;;3.22;1.60;;;9.20;89.10;;;;;;10790516;33;20051;-75
2023/01/23 18:25:38;;;;;;;4.40;2.72;;;9.20;88.90;;;;;;10790148;33;20390;-74
2023/01/23 18:32:08;;;;;;;3.00;1.80;;;9.10;89.10;;;;;;10790373;32;20445;-75
2023/01/23 18:38:25;;;;;;;2.90;1.70;;;9.10;88.60;;;;;;10768854;32;20193;-75
2023/01/23 18:44:28;;;;;;;4.47;2.83;;;9.10;88.80;;;;;;10739900;33;20025;-75
2023/01/23 18:50:30;;;;;;;3.97;2.35;;;9.10;89.00;;;;;;10752912;33;20025;-73
2023/01/23 18:56:56;;;;;;;9.68;5.47;;;9.10;89.10;;;;;;10752824;33;20016;-73
2023/01/23 19:03:13;;;;;;;7.75;4.55;;;9.20;89.10;;;;;;10752659;33;20395;-73
2023/01/23 19:09:18;;;;;;;6.55;3.42;;;9.20;88.40;;;;;;10748381;33;20053;-74
2023/01/23 19:15:40;;;;;;;6.03;3.22;;;9.10;88.60;;;;;;10752329;33;20398;-74
2023/01/23 19:21:45;;;;;;;5.03;3.33;;;9.10;88.80;;;;;;10752011;33;20354;-73
2023/01/23 19:27:51;;;;;;;3.33;1.52;;;9.20;88.60;;;;;;10752138;32;20020;-73
2023/01/23 19:33:53;;;;;;;1.92;1.25;;;9.10;89.00;;;;;;10738899;32;20020;-73
2023/01/23 19:40:02;;;;;;;4.68;3.03;;;9.20;89.20;;;;;;10751793;33;20020;-73
2023/01/23 19:46:25;;;;;;;4.12;2.65;;;9.20;89.00;;;;;;10738438;33;20070;-73
2023/01/23 19:52:51;;;;;;;4.07;2.28;;;9.20;88.70;;;;;;10750483;33;20051;-75
2023/01/23 19:58:55;;;;;;;3.90;2.72;;;9.20;88.90;;;;;;10742246;33;20039;-75
2023/01/23 20:04:57;;;;;;;4.93;2.28;;;9.20;88.90;;;;;;10785817;33;20055;-73
2023/01/23 20:11:00;;;;;;;4.40;3.10;;;9.10;88.70;;;;;;10769719;33;20040;-73
2023/01/23 20:17:02;;;;;;;5.12;2.80;;;9.10;88.90;;;;;;10786948;33;20021;-73
2023/01/23 20:23:24;;;;;;;3.10;2.00;;;9.10;89.00;;;;;;10787367;33;20035;-73
2023/01/23 20:29:29;;;;;;;2.83;2.00;;;9.00;88.90;;;;;;10771586;32;20036;-73
2023/01/23 20:35:37;;;;;;;2.58;1.65;;;9.10;89.10;;;;;;10782792;33;20012;-73
2023/01/23 20:41:44;;;;;;;5.00;1.95;;;9.10;89.10;;;;;;10773654;33;20043;-73
2023/01/23 20:47:46;;;;;;;2.85;1.80;;;9.10;88.90;;;;;;10786544;33;20019;-73
2023/01/23 20:53:49;;;;;;;5.20;3.15;;;9.10;88.50;;;;;;10786438;33;20070;-73
2023/01/23 20:59:51;;;;;;;4.07;1.90;;;9.10;88.20;;;;;;10786083;33;20323;-74
2023/01/23 21:05:54;;;;;;;3.05;1.65;;;9.00;88.00;;;;;;10788501;33;20025;-74
2023/01/23 21:11:56;;;;;;;3.37;1.65;;;9.00;88.10;;;;;;10792158;33;20020;-73
2023/01/23 21:17:58;;;;;;;3.28;2.12;;;9.00;88.00;;;;;;10789448;33;20373;-73
2023/01/23 21:24:00;;;;;;;3.75;2.20;;;9.00;88.20;;;;;;10791666;33;20403;-73
2023/01/23 21:30:03;;;;;;;2.83;1.90;;;9.10;88.30;;;;;;10779483;32;20287;-73
2023/01/23 21:36:06;;;;;;;2.85;1.80;;;9.10;88.20;;;;;;10791805;32;20042;-73
2023/01/23 21:42:08;;;;;;;7.53;4.22;;;9.00;88.10;;;;;;10777668;33;20032;-73
2023/01/23 21:48:10;;;;;;;6.40;2.75;;;9.10;87.90;;;;;;10777710;32;20332;-73
2023/01/23 21:54:12;;;;;;;5.28;2.40;;;9.00;88.00;;;;;;10778258;32;20342;-74
2023/01/23 22:06:37;;;;;;;2.95;1.95;;;9.00;88.10;;;;;;10791006;33;20024;-73
2023/01/23 22:12:39;;;;;;;3.97;2.45;;;9.00;88.40;;;;;;10777426;33;20079;-74
2023/01/23 22:18:41;;;;;;;4.30;1.62;;;9.10;88.10;;;;;;10789920;33;20016;-74
2023/01/23 22:24:44;;;;;;;6.78;3.22;;;9.20;88.60;;;;;;10790379;33;20017;-73
2023/01/23 22:30:47;;;;;;;4.45;2.10;;;9.20;88.10;;;;;;10790249;33;20028;-73
2023/01/23 22:36:49;;;;;;;5.35;2.87;;;9.20;88.10;;;;;;10788991;33;20362;-73
2023/01/23 22:42:51;;;;;;;5.05;2.72;;;9.30;88.50;;;;;;10776405;33;20032;-73
2023/01/23 22:48:53;;;;;;;3.62;2.15;;;9.30;88.40;;;;;;10789662;33;20016;-73
2023/01/23 22:54:55;;;;;;;6.68;3.62;;;9.20;87.50;;;;;;10789558;33;20011;-73
2023/01/23 23:01:14;;;;;;;5.35;2.40;;;9.10;88.30;;;;;;10789464;33;20353;-73
2023/01/23 23:07:17;;;;;;;2.78;1.65;;;9.20;88.50;;;;;;10788993;33;20466;-73
2023/01/23 23:13:38;;;;;;;4.05;2.22;;;9.30;88.90;;;;;;10789074;33;20048;-73
2023/01/23 23:19:40;;;;;;;2.55;1.45;;;9.30;88.50;;;;;;10788934;33;20016;-73
2023/01/23 23:25:43;;;;;;;2.42;1.20;;;9.20;88.50;;;;;;10784832;33;20016;-73
2023/01/23 23:31:50;;;;;;;3.28;1.48;;;9.20;88.50;;;;;;10775818;32;20032;-73
2023/01/23 23:37:52;;;;;;;3.60;2.00;;;9.20;88.70;;;;;;10788364;33;20041;-73
2023/01/23 23:43:53;;;;;;;4.15;1.70;;;9.20;88.90;;;;;;10788328;33;20016;-74
2023/01/23 23:49:55;;;;;;;3.30;1.95;;;9.20;88.80;;;;;;10787977;33;20024;-75
2023/01/23 23:56:05;;;;;;;5.57;2.87;;;9.20;89.00;;;;;;10787883;33;20025;-73
